Latest Weather Observations for Yarram Airport

IDV60801

Issued at 2:02 pm EST Friday 29 April 2016 (issued every 30 minutes, with the page automatically refreshed every 10 minutes)

About weather observations | Map of weather stations | Latest weather observations for VIC | Other Formats
Station Details ID: 085151 Name: YARRAM AIRPORT Lat: -38.56 Lon: 146.75 Height: 17.9 m
Data from the previous 72 hours. | See also: Recent months at Yarram Airport
Date/Time
EST
Temp
°C
App
Temp
°C
Dew
Point
Rel
Hum
%
Delta-T
°C
Wind Press
QNH
hPa
Press
MSL
hPa
Rain
since 9 am
mm
Dir
 
Spd
km/h
Gust
km/h
Spd
kts
Gust
kts
29/02:00pm 18.1 18.2 15.4 84 1.6 NW 9 15 5 8 1013.5 1013.5 2.2
29/01:30pm 18.7 14.6 14.8 78 2.3 NW 30 41 16 22 1013.7 1013.7 1.0
29/01:20pm 20.3 18.0 14.2 68 3.5 NW 19 43 10 23 1013.6 1013.6 0.0
29/01:00pm 20.1 20.3 14.7 71 3.2 WSW 7 13 4 7 1013.5 1013.5 0.0
29/12:30pm 19.5 18.0 14.3 72 3.0 SW 15 19 8 10 1013.9 1013.9 0.0
29/12:00pm 19.2 16.6 13.8 71 3.1 SSW 20 28 11 15 1014.0 1014.0 0.0
29/11:30am 20.3 17.4 12.8 62 4.2 SSW 20 28 11 15 1014.2 1014.2 0.0
29/11:00am 22.2 19.9 11.9 52 5.8 N 15 20 8 11 1013.8 1013.8 0.0
29/10:30am 23.1 18.8 10.9 46 6.8 N 24 28 13 15 1013.9 1013.9 0.0
29/10:00am 23.0 17.8 10.4 45 6.9 N 28 35 15 19 1014.2 1014.2 0.0
29/09:30am 23.2 18.0 10.3 44 7.1 N 28 35 15 19 1014.6 1014.6 0.0
29/09:00am 23.7 17.5 9.3 40 7.8 N 32 43 17 23 1015.0 1015.0 0.0
29/08:30am 22.3 18.6 10.1 46 6.6 N 20 26 11 14 1014.9 1014.9 0.0
29/08:00am 21.6 17.6 10.4 49 6.1 N 22 26 12 14 1015.0 1015.0 0.0
29/07:30am 20.8 16.8 10.3 51 5.7 N 22 26 12 14 1015.0 1015.0 0.0
29/07:00am 19.1 15.6 10.1 56 4.8 N 19 20 10 11 1014.8 1014.8 0.0
29/06:30am 19.3 15.7 10.0 55 5.0 NNE 19 22 10 12 1015.0 1015.0 0.0
29/06:00am 18.8 15.4 10.4 58 4.5 NNE 19 22 10 12 1015.2 1015.2 0.0
29/05:30am 19.9 16.4 10.3 54 5.2 N 19 24 10 13 1015.4 1015.4 0.0
29/05:00am 20.0 17.0 10.7 55 5.1 N 17 20 9 11 1015.5 1015.5 0.0
29/04:30am 19.8 16.4 10.5 55 5.0 N 19 20 10 11 1015.3 1015.3 0.0
29/04:00am 20.0 17.0 10.7 55 5.1 N 17 20 9 11 1015.4 1015.4 0.0
29/03:30am 20.2 16.9 10.9 55 5.1 N 19 24 10 13 1015.5 1015.5 0.0
29/03:00am 19.8 16.5 11.0 57 4.8 N 19 20 10 11 1015.8 1015.8 0.0
29/02:30am 19.5 16.6 11.0 58 4.6 N 17 20 9 11 1015.9 1015.9 0.0
29/02:00am 19.5 16.7 11.3 59 4.5 N 17 19 9 10 1016.2 1016.2 0.0
29/01:30am 19.8 17.0 11.3 58 4.7 N 17 20 9 11 1016.3 1016.3 0.0
29/01:00am 19.3 16.9 11.3 60 4.4 N 15 19 8 10 1016.5 1016.5 0.0
29/12:30am 19.4 16.5 12.4 64 3.9 N 19 22 10 12 1016.6 1016.6 0.0
29/12:00am 14.5 15.1 12.0 85 1.3 CALM 0 0 0 0 1016.8 1016.8 0.0
 
Date/Time
EST
Temp
°C
App
Temp
°C
Dew
Point
Rel
Hum
%
Delta-T
°C
Wind Press
QNH
hPa
Press
MSL
hPa
Rain
since 9 am
mm
Dir
 
Spd
km/h
Gust
km/h
Spd
kts
Gust
kts
28/11:30pm 15.1 15.9 12.6 85 1.4 CALM 0 0 0 0 1017.2 1017.2 0.0
28/11:00pm 14.9 15.7 12.4 85 1.4 CALM 0 0 0 0 1017.4 1017.4 0.0
28/10:30pm 13.8 14.1 11.0 83 1.5 CALM 0 0 0 0 1017.8 1017.8 0.0
28/10:00pm 15.9 14.4 11.9 77 2.2 NE 11 13 6 7 1018.1 1018.1 0.0
28/09:30pm 16.4 15.3 12.0 75 2.4 NE 9 11 5 6 1018.3 1018.3 0.0
28/09:00pm 15.9 14.3 11.5 75 2.4 NNE 11 13 6 7 1018.2 1018.2 0.0
28/08:30pm 17.0 15.3 12.5 75 2.5 NE 13 15 7 8 1018.1 1018.1 0.0
28/08:00pm 16.6 15.5 12.0 74 2.5 NE 9 11 5 6 1018.2 1018.2 0.0
28/07:30pm 17.1 16.1 12.2 73 2.7 NE 9 11 5 6 1018.3 1018.3 0.0
28/07:00pm 15.8 14.7 11.8 77 2.2 N 9 9 5 5 1018.1 1018.1 0.0
28/06:30pm 18.0 17.0 12.2 69 3.2 ESE 9 11 5 6 1017.9 1017.9 0.0
28/06:00pm 18.2 16.5 12.4 69 3.2 SSE 13 13 7 7 1018.0 1018.0 0.0
28/05:30pm 19.6 17.9 12.6 64 3.9 SSE 13 17 7 9 1017.9 1017.9 0.0
28/05:00pm 20.2 18.6 12.7 62 4.2 S 13 17 7 9 1017.9 1017.9 0.0
28/04:30pm 20.0 21.0 14.4 70 3.3 SSW 2 7 1 4 1017.5 1017.5 0.0
28/04:00pm 21.5 21.1 12.9 58 4.9 E 7 7 4 4 1017.4 1017.4 0.0
28/03:30pm 21.8 21.9 13.9 61 4.6 E 6 9 3 5 1017.3 1017.3 0.0
28/03:00pm 22.0 23.7 15.1 65 4.1 CALM 0 0 0 0 1017.1 1017.1 0.0
28/02:30pm 22.3 23.5 13.9 59 4.9 CALM 0 0 0 0 1016.8 1016.8 0.0
28/02:00pm 22.8 23.3 12.7 53 5.8 NW 2 7 1 4 1016.9 1016.9 0.0
28/01:30pm 22.4 21.1 12.6 54 5.6 N 11 13 6 7 1017.1 1017.1 0.0
28/01:00pm 23.0 22.1 12.6 52 5.9 N 9 13 5 7 1017.2 1017.2 0.0
28/12:30pm 23.0 22.4 12.3 51 6.1 WNW 7 11 4 6 1017.4 1017.4 0.0
28/12:00pm 23.4 22.0 12.1 49 6.4 NW 11 15 6 8 1017.6 1017.6 0.0
28/11:30am 24.2 22.0 10.8 43 7.5 WNW 13 26 7 14 1017.8 1017.8 0.0
28/11:00am 24.5 22.6 11.8 45 7.2 NW 13 20 7 11 1017.8 1017.8 0.0
28/10:30am 24.4 21.0 10.7 42 7.6 N 19 26 10 14 1017.4 1017.4 0.0
28/10:00am 23.3 21.0 11.7 48 6.5 NNE 15 20 8 11 1017.4 1017.4 0.0
28/09:30am 24.2 21.9 10.5 42 7.6 N 13 19 7 10 1017.2 1017.2 0.0
28/09:00am 23.3 20.9 11.4 47 6.7 NNW 15 19 8 10 1017.2 1017.2 0.0
28/08:30am 23.3 19.9 10.7 45 7.0 NNW 19 28 10 15 1017.0 1017.0 0.0
28/08:00am 22.4 19.7 10.2 46 6.7 NNW 15 20 8 11 1016.8 1016.8 0.0
28/07:30am 21.4 18.1 9.6 47 6.3 N 17 28 9 15 1016.4 1016.4 0.0
28/07:00am 21.2 19.7 9.1 46 6.4 NNE 7 9 4 5 1016.3 1016.3 0.0
28/06:30am 22.4 20.2 9.2 43 7.1 NNW 11 13 6 7 1016.4 1016.4 0.0
28/06:00am 20.9 19.0 8.9 46 6.3 NW 9 15 5 8 1016.3 1016.3 0.0
28/05:30am 19.2 16.9 9.1 52 5.3 NNW 11 15 6 8 1016.3 1016.3 0.0
28/05:00am 19.7 17.8 9.0 50 5.6 NNW 9 13 5 7 1016.0 1016.0 0.0
28/04:30am 20.9 18.1 8.5 45 6.5 NNW 13 17 7 9 1015.8 1015.8 0.0
28/04:00am 22.2 18.0 8.3 41 7.3 NNW 20 24 11 13 1015.4 1015.4 0.0
28/03:30am 22.1 17.1 8.2 41 7.3 N 24 32 13 17 1015.3 1015.3 0.0
28/03:00am 22.7 16.5 7.7 38 7.8 N 30 37 16 20 1015.1 1015.1 0.0
28/02:30am 22.9 16.7 7.8 38 7.9 N 30 39 16 21 1015.3 1015.3 0.0
28/02:00am 22.8 16.6 7.8 38 7.9 N 30 41 16 22 1015.5 1015.5 0.0
28/01:30am 23.0 16.2 7.9 38 7.9 N 33 44 18 24 1015.5 1015.5 0.0
28/01:00am 23.2 17.4 8.1 38 8.0 N 28 39 15 21 1015.5 1015.5 0.0
28/12:30am 20.3 16.3 8.3 46 6.3 NNE 19 28 10 15 1015.7 1015.7 0.0
28/12:00am 19.2 17.5 8.5 50 5.5 NE 7 11 4 6 1016.1 1016.1 0.0
 
Date/Time
EST
Temp
°C
App
Temp
°C
Dew
Point
Rel
Hum
%
Delta-T
°C
Wind Press
QNH
hPa
Press
MSL
hPa
Rain
since 9 am
mm
Dir
 
Spd
km/h
Gust
km/h
Spd
kts
Gust
kts
27/11:30pm 20.5 16.6 8.5 46 6.3 N 19 26 10 14 1016.3 1016.3 0.0
27/11:00pm 20.2 15.6 8.2 46 6.2 N 22 26 12 14 1016.5 1016.5 0.0
27/10:30pm 20.6 16.4 8.3 45 6.4 N 20 24 11 13 1017.0 1017.0 0.0
27/10:00pm 20.7 16.2 8.4 45 6.4 N 22 26 12 14 1017.1 1017.1 0.0
27/09:30pm 20.9 16.9 8.9 46 6.3 N 20 24 11 13 1017.2 1017.2 0.0
27/09:00pm 16.8 15.3 9.0 60 4.0 NE 7 11 4 6 1017.2 1017.2 0.0
27/08:30pm 15.7 13.9 9.6 67 3.2 ESE 9 13 5 7 1017.2 1017.2 0.0
27/08:00pm 16.9 15.0 9.1 60 4.0 NE 9 13 5 7 1017.4 1017.4 0.0
27/07:30pm 17.7 15.8 9.1 57 4.5 E 9 11 5 6 1017.7 1017.7 0.0
27/07:00pm 17.5 15.8 9.7 60 4.1 ENE 9 9 5 5 1017.7 1017.7 0.0
27/06:30pm 16.2 14.1 9.6 65 3.4 NE 11 15 6 8 1017.6 1017.6 0.0
27/06:00pm 16.4 14.1 10.3 67 3.2 NNE 13 15 7 8 1017.2 1017.2 0.0
27/05:30pm 19.4 17.9 10.4 56 4.9 NE 9 13 5 7 1017.0 1017.0 0.0
27/05:00pm 21.6 19.7 10.4 49 6.1 ENE 11 19 6 10 1016.7 1016.7 0.0
27/04:30pm 23.8 20.7 9.0 39 8.0 N 15 20 8 11 1016.5 1016.5 0.0
27/04:00pm 25.4 23.1 10.4 39 8.3 NE 13 20 7 11 1016.5 1016.5 0.0
27/03:30pm 26.1 22.7 9.0 34 9.3 N 17 24 9 13 1016.6 1016.6 0.0
27/03:00pm 25.7 23.0 9.1 35 9.0 N 13 17 7 9 1016.9 1016.9 0.0
27/02:30pm 24.3 21.1 9.8 40 7.9 NNE 17 22 9 12 1017.0 1017.0 0.0
27/02:00pm 24.8 21.0 9.1 37 8.5 N 19 28 10 15 1017.2 1017.2 0.0
27/01:30pm 24.3 21.5 8.7 37 8.4 N 13 19 7 10 1017.5 1017.5 0.0
27/01:00pm 25.6 22.3 8.1 33 9.3 NNW 15 20 8 11 1018.2 1018.2 0.0
27/12:30pm 25.5 21.0 7.1 31 9.7 NW 20 30 11 16 1018.7 1018.7 0.0
27/12:00pm 25.8 23.1 7.4 31 9.7 NW 11 17 6 9 1019.1 1019.1 0.0
27/11:30am 25.5 22.3 8.5 34 9.2 N 15 22 8 12 1019.4 1019.4 0.0
27/11:00am 25.0 21.6 7.6 33 9.2 NNE 15 20 8 11 1019.8 1019.8 0.0
27/10:30am 24.1 21.8 7.3 34 8.8 NNE 9 15 5 8 1020.2 1020.2 0.0
27/10:00am 22.8 22.4 9.6 43 7.1 ENE 2 7 1 4 1020.7 1020.7 0.0
27/09:30am 20.4 19.5 10.5 53 5.4 NE 6 9 3 5 1021.1 1021.1 0.0
27/09:00am 16.7 15.9 11.6 72 2.8 NE 7 9 4 5 1021.1 1021.1 0.0
27/08:30am 12.5 10.7 9.3 81 1.6 NNE 9 13 5 7 1021.1 1021.1 0.0
27/08:00am 8.4 7.4 7.3 93 0.5 NNE 2 11 1 6 1021.3 1021.3 0.0
27/07:30am 5.7 3.4 4.8 94 0.4 NNE 6 11 3 6 1021.3 1021.3 0.0
27/07:00am 4.8 2.1 3.9 94 0.4 N 7 11 4 6 1021.0 1021.0 0.0
27/06:30am 4.0 0.8 3.0 93 0.4 WNW 9 13 5 7 1020.8 1020.8 0.0
27/06:00am 4.0 1.2 3.0 93 0.4 WSW 7 11 4 6 1020.6 1020.6 0.0
27/05:30am 4.1 2.6 2.9 92 0.5 CALM 0 0 0 0 1020.5 1020.5 0.0
27/05:00am 3.9 2.0 2.7 92 0.5 NE 2 6 1 3 1020.6 1020.6 0.0
27/04:30am 5.3 4.0 4.1 92 0.5 CALM 0 0 0 0 1020.5 1020.5 0.0
27/04:00am 4.8 3.0 3.5 91 0.5 NNE 2 9 1 5 1020.5 1020.5 0.0
27/03:30am 5.0 1.9 3.7 91 0.5 N 9 9 5 5 1020.8 1020.8 0.0
27/03:00am 5.6 2.3 4.4 92 0.5 NNE 11 13 6 7 1021.1 1021.1 0.0
27/02:30am 5.8 3.4 4.4 91 0.6 N 6 13 3 7 1021.4 1021.4 0.0
27/02:00am 5.5 4.1 3.8 89 0.7 CALM 0 0 0 0 1021.7 1021.7 0.0
27/01:30am 7.4 6.4 5.4 87 0.9 CALM 0 0 0 0 1022.0 1022.0 0.0
27/01:00am 8.1 7.1 5.7 85 1.1 CALM 0 0 0 0 1022.2 1022.2 0.0
27/12:30am 9.8 9.1 6.9 82 1.4 CALM 0 0 0 0 1022.4 1022.4 0.0
27/12:00am 10.5 8.4 6.6 77 1.8 WSW 7 7 4 4 1022.8 1022.8 0.0
 
Date/Time
EST
Temp
°C
App
Temp
°C
Dew
Point
Rel
Hum
%
Delta-T
°C
Wind Press
QNH
hPa
Press
MSL
hPa
Rain
since 9 am
mm
Dir
 
Spd
km/h
Gust
km/h
Spd
kts
Gust
kts
26/11:30pm 10.5 8.6 6.6 77 1.8 W 6 7 3 4 1023.0 1023.0 0.0
26/11:00pm 11.9 8.3 6.8 71 2.4 NNE 15 19 8 10 1023.1 1023.1 0.0
26/10:30pm 12.6 8.4 7.3 70 2.6 NNE 19 20 10 11 1023.2 1023.2 0.0
26/10:00pm 13.2 8.8 7.2 67 2.9 NNE 20 20 11 11 1023.5 1023.5 0.0
26/09:30pm 13.4 8.9 7.0 65 3.1 NNE 20 22 11 12 1023.6 1023.6 0.0
26/09:00pm 13.3 9.1 7.3 67 2.9 NNE 19 20 10 11 1023.8 1023.8 0.0
26/08:30pm 13.6 9.3 7.2 65 3.1 NNE 19 20 10 11 1023.9 1023.9 0.0
26/08:00pm 14.2 11.2 7.9 66 3.1 NNE 13 20 7 11 1024.0 1024.0 0.0
26/07:30pm 14.7 12.3 7.0 60 3.8 NE 9 11 5 6 1024.2 1024.2 0.0
26/07:00pm 16.3 13.6 7.5 56 4.4 NE 11 15 6 8 1024.2 1024.2 0.0
26/06:30pm 14.3 11.3 7.8 65 3.2 NE 13 15 7 8 1024.1 1024.1 0.0
26/06:00pm 16.4 13.2 8.4 59 4.1 NE 15 17 8 9 1023.8 1023.8 0.0
26/05:30pm 16.9 14.0 8.3 57 4.4 NE 13 15 7 8 1023.8 1023.8 0.0
26/05:00pm 19.4 17.6 9.6 53 5.2 ENE 9 13 5 7 1023.8 1023.8 0.0
26/04:30pm 21.0 18.6 10.2 50 5.9 ENE 13 17 7 9 1023.9 1023.9 0.0
26/04:00pm 22.5 19.7 10.0 45 6.8 E 15 22 8 12 1024.0 1024.0 0.0
26/03:30pm 23.6 20.1 8.8 39 7.9 E 17 22 9 12 1024.1 1024.1 0.0
26/03:00pm 24.3 21.5 8.7 37 8.3 SE 13 19 7 10 1024.3 1024.3 0.0
26/02:30pm 24.9 21.0 7.1 32 9.3 WSW 17 22 9 12 1024.4 1024.4 0.0

Other Formats:

Comma delimited format used in spreadsheet applications
http://www.bom.gov.au/fwo/IDV60801/IDV60801.95890.axf

JavaScript Object Notation format (JSON) in row-major order
http://www.bom.gov.au/fwo/IDV60801/IDV60801.95890.json